Time;durP1;ratioP1;P1;durP2;ratioP2;P2;SDS_P1;SDS_P2;PMS_P1;PMS_P2;Temp;Humidity;BMP_temperature;BMP_pressure;BME280_temperature;BME280_humidity;BME280_pressure;Samples;Min_cycle;Max_cycle;Signal;HPM_P1;HPM_P2
2021/11/15 00:00:27;;;;;;;9.30;4.85;;;11.40;83.10;;;;;;6178888;28;20055;-84
2021/11/15 00:03:32;;;;;;;10.90;4.88;;;11.40;82.60;;;;;;6200887;28;20090;-84
2021/11/15 00:06:37;;;;;;;10.35;5.20;;;11.50;84.30;;;;;;6195431;28;20110;-81
2021/11/15 00:09:55;;;;;;;10.60;5.35;;;11.50;82.80;;;;;;6189581;28;20109;-81
2021/11/15 00:13:41;;;;;;;9.77;5.17;;;11.50;81.50;;;;;;6189444;28;20080;-83
2021/11/15 00:47:23;;;;;;;10.52;4.93;;;11.30;81.20;;;;;;6187118;28;20057;-82
2021/11/15 00:50:25;;;;;;;8.45;3.60;;;11.40;81.20;;;;;;6183614;28;20050;-82
2021/11/15 00:53:27;;;;;;;9.75;5.25;;;11.20;81.10;;;;;;6185087;28;20176;-83
2021/11/15 00:56:29;;;;;;;16.63;5.75;;;11.30;81.40;;;;;;6184233;28;20144;-82
2021/11/15 00:59:33;;;;;;;10.65;4.68;;;11.20;81.60;;;;;;6185076;28;20054;-84
2021/11/15 01:02:34;;;;;;;7.07;4.18;;;11.30;82.90;;;;;;6185466;28;20070;-83
2021/11/15 01:05:38;;;;;;;13.32;5.78;;;11.30;81.90;;;;;;6187156;28;20138;-82
2021/11/15 01:08:40;;;;;;;14.38;5.25;;;11.20;81.70;;;;;;6186976;28;20098;-81
2021/11/15 01:11:41;;;;;;;11.45;5.70;;;11.20;81.80;;;;;;6189185;28;20058;-83
2021/11/15 01:14:45;;;;;;;15.10;5.72;;;11.30;82.10;;;;;;6188599;28;20142;-81
2021/11/15 01:17:48;;;;;;;8.82;3.88;;;11.30;82.00;;;;;;6187496;28;20129;-84
2021/11/15 01:20:50;;;;;;;9.40;4.70;;;11.20;82.50;;;;;;6187138;28;20050;-83
2021/11/15 01:23:52;;;;;;;12.00;6.18;;;11.30;82.50;;;;;;6188129;28;20137;-82
2021/11/15 01:26:54;;;;;;;6.32;3.38;;;11.20;82.40;;;;;;6189630;28;20059;-82
2021/11/15 01:29:57;;;;;;;10.82;4.97;;;11.20;83.00;;;;;;6182535;28;20106;-81
2021/11/15 01:32:59;;;;;;;11.05;5.60;;;11.10;82.50;;;;;;6188184;28;20046;-82
2021/11/15 01:36:01;;;;;;;19.70;8.30;;;11.20;82.20;;;;;;6187899;28;20145;-83
2021/11/15 01:39:05;;;;;;;12.07;5.55;;;11.10;82.20;;;;;;6189693;28;20106;-81
2021/11/15 01:42:07;;;;;;;11.82;5.82;;;11.00;82.40;;;;;;6186525;28;20133;-81
2021/11/15 01:45:12;;;;;;;14.65;6.07;;;11.00;82.40;;;;;;6187051;28;20130;-82
2021/11/15 01:48:14;;;;;;;11.43;5.15;;;11.20;82.10;;;;;;6187096;28;20110;-82
2021/11/15 01:51:16;;;;;;;12.13;4.82;;;11.10;82.00;;;;;;6188039;28;20105;-82
2021/11/15 01:54:18;;;;;;;11.00;5.32;;;11.10;81.90;;;;;;6187792;28;20046;-83
2021/11/15 01:57:20;;;;;;;10.65;5.15;;;11.10;82.60;;;;;;6187532;28;20043;-81
2021/11/15 02:00:27;;;;;;;14.85;5.82;;;11.10;82.20;;;;;;6186419;28;20218;-82
2021/11/15 02:03:32;;;;;;;12.55;6.28;;;11.00;81.80;;;;;;6190517;28;20051;-82
2021/11/15 02:06:34;;;;;;;8.30;5.97;;;11.10;82.20;;;;;;6191055;28;20051;-83
2021/11/15 02:09:36;;;;;;;14.93;6.10;;;11.00;82.10;;;;;;6190559;28;20067;-82
2021/11/15 02:12:37;;;;;;;13.68;5.95;;;11.10;81.70;;;;;;6189696;28;20073;-82
2021/11/15 02:15:40;;;;;;;12.13;6.22;;;11.00;81.50;;;;;;6191366;28;20110;-82
2021/11/15 02:18:42;;;;;;;7.60;4.30;;;10.90;81.10;;;;;;6191990;28;20106;-83
2021/11/15 02:21:46;;;;;;;13.48;5.88;;;10.80;81.20;;;;;;6191279;28;20074;-82
2021/11/15 02:24:47;;;;;;;11.35;5.05;;;10.80;81.40;;;;;;6192887;28;20057;-83
2021/11/15 02:27:49;;;;;;;12.45;5.65;;;10.80;81.40;;;;;;6192746;28;20453;-81
2021/11/15 02:30:51;;;;;;;13.65;6.05;;;10.80;81.00;;;;;;6190891;28;20098;-80
2021/11/15 02:33:55;;;;;;;15.00;6.47;;;10.90;81.00;;;;;;6190769;28;20047;-83
2021/11/15 02:36:58;;;;;;;14.73;4.72;;;10.90;81.10;;;;;;6191014;28;20428;-82
2021/11/15 02:40:01;;;;;;;10.50;5.43;;;10.90;80.30;;;;;;6190724;28;20110;-83
2021/11/15 02:43:03;;;;;;;10.25;4.53;;;10.90;80.70;;;;;;6190507;28;20122;-80
2021/11/15 02:46:05;;;;;;;13.05;6.25;;;10.80;80.30;;;;;;6190465;28;20043;-83
2021/11/15 02:49:07;;;;;;;13.90;6.07;;;10.80;79.90;;;;;;6189595;28;20528;-82
2021/11/15 02:52:11;;;;;;;10.15;5.10;;;10.70;80.10;;;;;;6189879;28;20047;-80
2021/11/15 02:55:13;;;;;;;9.57;4.93;;;10.70;79.90;;;;;;6190898;28;20067;-83
2021/11/15 02:58:16;;;;;;;13.75;6.53;;;10.70;80.00;;;;;;6189199;28;20049;-82
2021/11/15 03:01:19;;;;;;;14.25;6.55;;;10.70;80.40;;;;;;6189058;28;20093;-82
2021/11/15 03:04:21;;;;;;;15.70;6.30;;;10.70;79.70;;;;;;6190320;28;20130;-80
2021/11/15 03:07:24;;;;;;;13.30;5.65;;;10.60;79.60;;;;;;6190596;28;20055;-80
2021/11/15 03:10:27;;;;;;;13.27;5.45;;;10.60;80.10;;;;;;6187364;28;20058;-83
2021/11/15 03:13:32;;;;;;;11.93;5.70;;;10.60;80.20;;;;;;6185177;28;20051;-81
2021/11/15 03:16:34;;;;;;;14.75;5.72;;;10.60;80.30;;;;;;6185130;28;20047;-80
2021/11/15 03:19:36;;;;;;;16.35;7.43;;;10.60;80.00;;;;;;6185239;28;20669;-83
2021/11/15 03:22:39;;;;;;;14.98;7.25;;;10.60;80.10;;;;;;6187139;28;20051;-81
2021/11/15 03:25:41;;;;;;;13.88;5.60;;;10.60;80.50;;;;;;6187989;28;20051;-81
2021/11/15 03:28:47;;;;;;;15.30;7.10;;;10.60;80.60;;;;;;6186960;28;20131;-81
2021/11/15 03:31:49;;;;;;;18.77;7.10;;;10.70;80.50;;;;;;6186829;28;20129;-81
2021/11/15 03:34:51;;;;;;;14.40;6.00;;;10.70;80.40;;;;;;6188348;28;20136;-81
2021/11/15 03:37:55;;;;;;;15.48;5.68;;;10.60;80.10;;;;;;6187300;28;20047;-83
2021/11/15 03:40:57;;;;;;;14.73;5.63;;;10.40;80.00;;;;;;6185977;28;20053;-83
2021/11/15 03:43:59;;;;;;;12.45;5.88;;;10.50;80.20;;;;;;6186131;28;20078;-80
2021/11/15 03:47:01;;;;;;;13.73;5.32;;;10.50;81.10;;;;;;6186895;28;20059;-83
2021/11/15 03:50:03;;;;;;;11.73;6.45;;;10.50;80.20;;;;;;6186467;28;20255;-80
2021/11/15 03:53:10;;;;;;;13.13;6.35;;;10.40;80.20;;;;;;6188675;28;20043;-82
2021/11/15 03:56:14;;;;;;;11.82;4.50;;;10.50;81.30;;;;;;6189809;28;20102;-82
2021/11/15 03:59:16;;;;;;;13.75;5.72;;;10.50;80.50;;;;;;6191992;28;20125;-83
2021/11/15 04:02:21;;;;;;;14.48;6.13;;;10.60;81.60;;;;;;6184184;28;20048;-83
2021/11/15 04:05:29;;;;;;;12.07;6.07;;;10.60;80.30;;;;;;6184729;28;20078;-83
2021/11/15 04:08:33;;;;;;;15.57;7.03;;;10.50;80.10;;;;;;6183856;28;20042;-83
2021/11/15 04:11:37;;;;;;;15.20;5.45;;;10.60;81.00;;;;;;6185807;28;20480;-83
2021/11/15 04:14:38;;;;;;;27.95;11.93;;;10.60;81.10;;;;;;6184269;28;20057;-83
2021/11/15 04:17:41;;;;;;;17.77;7.43;;;10.60;81.00;;;;;;6185801;28;20094;-83
2021/11/15 04:20:43;;;;;;;24.05;9.00;;;10.60;80.20;;;;;;6186234;28;20535;-83
2021/11/15 04:23:47;;;;;;;11.40;6.13;;;10.60;80.70;;;;;;6187444;28;20058;-83
2021/11/15 04:26:48;;;;;;;16.63;5.68;;;10.50;80.90;;;;;;6186701;28;20157;-83
2021/11/15 04:29:50;;;;;;;15.38;6.68;;;10.50;80.20;;;;;;6187883;28;20129;-82
2021/11/15 04:32:52;;;;;;;15.68;6.82;;;10.40;81.00;;;;;;6187471;28;20047;-83
2021/11/15 04:35:54;;;;;;;11.50;6.15;;;10.50;81.90;;;;;;6188039;28;20047;-82
2021/11/15 04:38:57;;;;;;;14.63;6.68;;;10.50;80.40;;;;;;6189593;28;20110;-83
2021/11/15 04:41:59;;;;;;;13.95;6.88;;;10.40;80.20;;;;;;6189874;28;20440;-82
2021/11/15 04:45:01;;;;;;;15.30;7.20;;;10.40;81.50;;;;;;6188415;28;20050;-83
2021/11/15 04:48:04;;;;;;;17.98;6.57;;;10.30;80.70;;;;;;6189496;28;20064;-82
2021/11/15 04:51:06;;;;;;;11.93;5.32;;;10.20;80.60;;;;;;6193374;28;20057;-82
2021/11/15 04:54:09;;;;;;;13.98;7.22;;;10.20;80.90;;;;;;6190554;28;20050;-82
2021/11/15 04:57:11;;;;;;;16.90;7.43;;;10.20;81.00;;;;;;6186830;28;20066;-82
2021/11/15 05:00:17;;;;;;;16.77;7.72;;;10.20;81.20;;;;;;6184667;28;20043;-82
2021/11/15 05:03:21;;;;;;;17.67;8.95;;;10.10;81.10;;;;;;6186338;28;20110;-82
2021/11/15 05:06:23;;;;;;;14.57;6.30;;;10.20;81.60;;;;;;6186651;28;20054;-82
2021/11/15 05:09:26;;;;;;;18.08;6.68;;;10.20;81.30;;;;;;6186793;28;20054;-82
2021/11/15 05:12:32;;;;;;;16.15;7.15;;;10.10;81.40;;;;;;6186690;28;20047;-82
2021/11/15 05:15:34;;;;;;;11.90;5.40;;;10.20;81.80;;;;;;6185918;28;20054;-83
2021/11/15 05:18:36;;;;;;;17.33;6.55;;;10.20;81.20;;;;;;6179181;28;20530;-82
2021/11/15 05:21:37;;;;;;;15.15;7.38;;;10.10;81.10;;;;;;6180312;28;20089;-83
2021/11/15 05:24:41;;;;;;;11.90;6.47;;;10.10;81.80;;;;;;6180281;28;20043;-82
2021/11/15 05:27:43;;;;;;;16.08;7.50;;;10.20;80.90;;;;;;6180167;28;20059;-81
2021/11/15 05:30:45;;;;;;;12.65;5.88;;;10.10;81.20;;;;;;6180393;28;20051;-81
2021/11/15 05:33:47;;;;;;;15.10;6.50;;;10.10;81.10;;;;;;6182458;28;20130;-84
2021/11/15 05:36:48;;;;;;;12.82;6.50;;;10.10;81.20;;;;;;6182468;28;20051;-83
2021/11/15 05:39:52;;;;;;;9.73;5.00;;;10.00;81.00;;;;;;6184775;28;20142;-83
2021/11/15 05:42:54;;;;;;;11.93;5.90;;;10.00;82.00;;;;;;6185466;28;20141;-83
2021/11/15 05:45:56;;;;;;;9.90;5.47;;;10.00;81.40;;;;;;6184475;28;20055;-83
2021/11/15 05:48:58;;;;;;;16.48;6.65;;;9.90;81.20;;;;;;6184192;28;20416;-81
2021/11/15 05:52:00;;;;;;;16.58;6.88;;;10.00;82.30;;;;;;6184976;28;20200;-84
2021/11/15 05:55:03;;;;;;;16.27;5.57;;;10.10;81.70;;;;;;6183224;28;20065;-81
2021/11/15 05:58:05;;;;;;;13.32;6.57;;;10.00;81.50;;;;;;6183110;28;20124;-82
2021/11/15 06:01:07;;;;;;;14.38;6.43;;;10.00;81.40;;;;;;6183620;28;20176;-83
2021/11/15 06:04:09;;;;;;;13.50;6.60;;;10.00;81.60;;;;;;6181875;28;20053;-82
2021/11/15 06:07:11;;;;;;;19.52;6.85;;;9.90;81.80;;;;;;6183271;28;20106;-82
2021/11/15 06:10:14;;;;;;;13.93;6.43;;;10.00;82.00;;;;;;6183315;28;20051;-82
2021/11/15 06:13:16;;;;;;;10.60;5.15;;;9.90;81.80;;;;;;6183710;28;20043;-81
2021/11/15 06:16:18;;;;;;;14.70;6.68;;;10.00;82.20;;;;;;6184032;28;20113;-82
2021/11/15 06:19:19;;;;;;;15.45;6.95;;;10.00;81.20;;;;;;6184064;28;20058;-82
2021/11/15 06:22:21;;;;;;;13.52;6.57;;;10.00;81.80;;;;;;6183861;28;20050;-83
2021/11/15 06:25:25;;;;;;;8.95;5.25;;;10.00;81.30;;;;;;6183496;28;20054;-83
2021/11/15 06:28:26;;;;;;;14.45;6.80;;;10.00;80.80;;;;;;6184551;28;20047;-80
2021/11/15 06:31:28;;;;;;;16.60;5.75;;;9.80;81.10;;;;;;6198561;28;20098;-79
2021/11/15 06:34:30;;;;;;;14.10;5.68;;;9.80;81.70;;;;;;6184233;28;20412;-83
2021/11/15 06:37:33;;;;;;;14.23;6.65;;;9.80;81.80;;;;;;6182816;28;20050;-83
2021/11/15 06:40:36;;;;;;;12.27;5.63;;;9.90;81.70;;;;;;6182891;28;20054;-83
2021/11/15 06:43:38;;;;;;;12.13;5.93;;;9.90;81.50;;;;;;6189723;28;20062;-80
2021/11/15 06:46:39;;;;;;;15.57;6.93;;;9.90;81.50;;;;;;6190554;28;20086;-83
2021/11/15 06:49:41;;;;;;;14.43;6.07;;;9.90;81.30;;;;;;6187398;28;20617;-83
2021/11/15 06:52:43;;;;;;;11.45;5.25;;;9.90;80.90;;;;;;6185013;28;20114;-83
2021/11/15 06:55:47;;;;;;;13.75;6.45;;;9.80;81.30;;;;;;6183605;28;20061;-82
2021/11/15 06:58:48;;;;;;;13.88;6.03;;;9.80;81.60;;;;;;6176680;28;20170;-83
2021/11/15 07:01:50;;;;;;;13.05;6.00;;;9.80;81.30;;;;;;6184983;28;20073;-81
2021/11/15 07:04:52;;;;;;;11.25;5.65;;;9.80;81.30;;;;;;6184659;28;20569;-81
2021/11/15 07:07:55;;;;;;;11.02;5.30;;;9.80;81.30;;;;;;6190175;28;20110;-80
2021/11/15 07:10:58;;;;;;;16.77;6.40;;;9.90;81.60;;;;;;6187355;28;20129;-81
2021/11/15 07:14:00;;;;;;;11.35;6.53;;;10.00;81.20;;;;;;6183582;28;20047;-83
2021/11/15 07:17:02;;;;;;;16.63;7.80;;;10.00;80.80;;;;;;6182719;28;20133;-82
2021/11/15 07:20:05;;;;;;;13.55;6.55;;;10.10;80.80;;;;;;6182657;28;20389;-81
2021/11/15 07:23:07;;;;;;;8.63;4.88;;;10.00;80.90;;;;;;6184117;28;20126;-81
2021/11/15 07:26:10;;;;;;;11.30;6.13;;;10.00;80.70;;;;;;6180713;28;20122;-79
2021/11/15 07:29:12;;;;;;;14.05;6.18;;;10.00;80.70;;;;;;6180064;28;20050;-83
2021/11/15 07:32:14;;;;;;;15.32;6.55;;;9.80;80.80;;;;;;6183348;28;20062;-82
2021/11/15 07:35:16;;;;;;;10.75;5.82;;;9.80;81.20;;;;;;6186215;28;20141;-82
2021/11/15 07:38:18;;;;;;;12.38;6.20;;;9.90;81.10;;;;;;6181342;28;20039;-81
2021/11/15 07:41:21;;;;;;;14.00;6.03;;;9.90;81.00;;;;;;6181637;28;20046;-83
2021/11/15 07:44:23;;;;;;;10.30;5.53;;;10.00;81.00;;;;;;6157940;28;20047;-82
2021/11/15 07:47:25;;;;;;;16.17;6.82;;;10.10;80.70;;;;;;6181878;28;20098;-82
2021/11/15 07:50:27;;;;;;;12.32;6.13;;;10.00;80.40;;;;;;6181612;28;20053;-81
2021/11/15 07:53:30;;;;;;;12.85;6.35;;;10.20;80.40;;;;;;6181122;28;20098;-82
2021/11/15 07:56:34;;;;;;;12.57;5.28;;;10.20;80.20;;;;;;6180200;28;20042;-82
2021/11/15 07:59:36;;;;;;;10.15;5.57;;;10.10;80.20;;;;;;6181108;28;20058;-84
2021/11/15 08:02:39;;;;;;;12.88;6.57;;;10.10;80.30;;;;;;6180794;28;20113;-81
2021/11/15 08:05:41;;;;;;;14.55;6.03;;;10.10;80.50;;;;;;6179649;28;20051;-82
2021/11/15 08:08:43;;;;;;;12.05;5.78;;;10.10;80.40;;;;;;6181338;28;20042;-83
2021/11/15 08:11:50;;;;;;;12.55;6.78;;;10.30;80.90;;;;;;6181774;28;20105;-80
2021/11/15 08:14:52;;;;;;;9.52;5.28;;;10.30;80.50;;;;;;6180377;28;20082;-83
2021/11/15 08:17:55;;;;;;;13.25;5.70;;;10.30;79.80;;;;;;6179461;28;20061;-82
2021/11/15 08:21:01;;;;;;;11.60;5.32;;;10.20;79.80;;;;;;6183115;28;20070;-80
2021/11/15 08:24:30;;;;;;;14.38;5.38;;;10.20;80.10;;;;;;6181233;28;20058;-84
2021/11/15 08:27:33;;;;;;;9.88;5.30;;;10.20;80.10;;;;;;6180135;28;20101;-79
2021/11/15 08:30:35;;;;;;;13.32;5.78;;;10.30;79.70;;;;;;6182328;28;20098;-84
2021/11/15 08:37:39;;;;;;;11.65;7.13;;;10.10;79.60;;;;;;6184570;28;20039;-83
2021/11/15 08:40:42;;;;;;;9.80;4.93;;;10.10;79.70;;;;;;6184403;28;20054;-79
2021/11/15 08:43:48;;;;;;;14.45;6.15;;;10.10;80.00;;;;;;6187516;28;20086;-82
2021/11/15 08:46:52;;;;;;;14.07;7.18;;;10.00;80.30;;;;;;6184337;28;20050;-81
2021/11/15 08:49:53;;;;;;;11.55;5.32;;;10.00;80.20;;;;;;6179888;28;20560;-84
2021/11/15 08:52:56;;;;;;;12.80;5.22;;;10.10;80.10;;;;;;6179508;28;20066;-83
2021/11/15 08:55:57;;;;;;;9.93;5.45;;;10.10;80.00;;;;;;6179047;28;20054;-83
2021/11/15 08:59:01;;;;;;;13.05;6.20;;;10.00;79.90;;;;;;6180309;28;20055;-83
2021/11/15 09:02:03;;;;;;;11.65;5.10;;;10.20;80.50;;;;;;6180294;28;20056;-80
2021/11/15 09:05:06;;;;;;;10.45;5.95;;;10.20;79.80;;;;;;6180121;28;20099;-82
2021/11/15 09:08:08;;;;;;;9.10;5.65;;;10.20;79.60;;;;;;6180863;28;20146;-77
2021/11/15 09:11:10;;;;;;;12.52;6.43;;;10.30;79.70;;;;;;6179129;28;20047;-83
2021/11/15 09:14:15;;;;;;;10.00;5.22;;;10.20;79.40;;;;;;6184992;28;20186;-81
2021/11/15 09:17:17;;;;;;;10.68;4.50;;;10.20;79.30;;;;;;6185591;28;20074;-83
2021/11/15 09:20:19;;;;;;;10.25;5.10;;;10.20;79.30;;;;;;6185798;28;20058;-85
2021/11/15 09:23:21;;;;;;;10.43;5.65;;;10.20;79.30;;;;;;6185878;28;20205;-85
2021/11/15 09:26:26;;;;;;;13.52;5.70;;;10.30;79.40;;;;;;6185076;28;20158;-85
2021/11/15 09:29:29;;;;;;;9.38;5.53;;;10.30;79.30;;;;;;6186108;28;20049;-82
2021/11/15 09:32:31;;;;;;;11.52;5.63;;;10.20;79.70;;;;;;6186220;28;20059;-82
2021/11/15 09:35:34;;;;;;;15.52;5.03;;;10.20;79.50;;;;;;6186790;28;20058;-83
2021/11/15 09:38:36;;;;;;;10.45;4.85;;;10.20;79.50;;;;;;6185050;28;20057;-82
2021/11/15 09:41:48;;;;;;;12.88;5.40;;;10.30;79.60;;;;;;6185626;28;20046;-82
2021/11/15 09:44:53;;;;;;;8.18;3.90;;;10.40;79.40;;;;;;6185786;28;20047;-80
2021/11/15 09:48:02;;;;;;;8.35;4.57;;;10.50;78.80;;;;;;6186026;28;20137;-84
2021/11/15 09:51:06;;;;;;;9.77;5.25;;;10.50;78.60;;;;;;6185036;28;20047;-83
2021/11/15 09:54:09;;;;;;;12.30;5.32;;;10.60;78.80;;;;;;6185941;28;20053;-81
2021/11/15 09:57:12;;;;;;;12.60;4.70;;;10.50;78.90;;;;;;6185396;28;20129;-83
2021/11/15 10:00:24;;;;;;;11.27;4.75;;;10.40;78.60;;;;;;6186263;28;20134;-84
2021/11/15 10:03:27;;;;;;;13.35;4.97;;;10.40;78.60;;;;;;6186434;28;20595;-83
2021/11/15 10:06:31;;;;;;;11.48;5.28;;;10.30;78.90;;;;;;6183212;28;20128;-80
2021/11/15 10:09:34;;;;;;;13.35;4.88;;;10.30;79.30;;;;;;6185485;28;20070;-82
2021/11/15 10:12:36;;;;;;;11.45;4.97;;;10.40;79.50;;;;;;6187721;28;20504;-83
2021/11/15 10:15:49;;;;;;;9.35;4.00;;;10.60;79.20;;;;;;6188273;28;20050;-82
2021/11/15 10:18:53;;;;;;;9.63;4.30;;;10.70;78.50;;;;;;6186755;28;20050;-84
2021/11/15 10:21:58;;;;;;;7.28;3.85;;;10.80;77.90;;;;;;6185272;28;20465;-81
2021/11/15 10:25:00;;;;;;;7.90;4.18;;;10.70;77.60;;;;;;6191522;28;20098;-79
2021/11/15 10:28:07;;;;;;;9.35;5.45;;;10.70;78.20;;;;;;6184449;28;20139;-82
2021/11/15 10:31:29;;;;;;;12.15;4.70;;;10.90;77.80;;;;;;6185930;28;20049;-84
2021/11/15 10:34:33;;;;;;;10.02;4.47;;;11.00;77.80;;;;;;6183506;28;20119;-83
2021/11/15 10:37:37;;;;;;;14.80;4.22;;;11.00;77.00;;;;;;6185138;28;20071;-83
2021/11/15 10:40:39;;;;;;;7.97;4.18;;;10.90;76.80;;;;;;6184620;28;20039;-83
2021/11/15 10:43:41;;;;;;;12.65;4.13;;;10.80;77.30;;;;;;6184558;28;20047;-81
2021/11/15 10:46:44;;;;;;;11.50;4.75;;;10.70;77.10;;;;;;6183469;28;20083;-82
2021/11/15 10:49:47;;;;;;;10.32;4.43;;;10.60;77.80;;;;;;6183198;28;20043;-80
2021/11/15 10:53:01;;;;;;;10.43;3.92;;;10.80;78.10;;;;;;6183565;28;20177;-81
2021/11/15 10:56:09;;;;;;;8.45;4.53;;;10.80;78.10;;;;;;6183364;28;20055;-81
2021/11/15 10:59:15;;;;;;;7.65;4.13;;;10.80;77.70;;;;;;6183788;28;20054;-81
2021/11/15 11:02:28;;;;;;;9.85;4.25;;;10.80;77.70;;;;;;6184620;28;20043;-82
2021/11/15 11:05:30;;;;;;;9.02;4.68;;;10.90;77.90;;;;;;6186611;28;20086;-81
2021/11/15 11:08:40;;;;;;;8.88;4.43;;;11.00;77.30;;;;;;6183540;28;20071;-84
2021/11/15 11:11:41;;;;;;;11.52;3.88;;;11.00;77.40;;;;;;6183039;28;20042;-84
2021/11/15 11:14:45;;;;;;;7.25;4.03;;;11.00;76.80;;;;;;6183129;28;20094;-83
2021/11/15 11:18:11;;;;;;;7.32;3.97;;;10.80;76.80;;;;;;6183985;28;20046;-83
2021/11/15 11:24:43;;;;;;;8.13;4.50;;;11.00;77.30;;;;;;6182913;28;20054;-83
2021/11/15 11:27:44;;;;;;;;;;;10.90;76.80;;;;;;6183510;28;20520;-81
2021/11/15 11:30:46;;;;;;;13.90;4.65;;;10.80;77.10;;;;;;6183049;28;20001;-83
2021/11/15 11:33:50;;;;;;;8.55;4.13;;;10.60;77.50;;;;;;6182756;28;20055;-83
2021/11/15 11:36:52;;;;;;;10.80;3.95;;;10.70;77.90;;;;;;6183462;28;20149;-83
2021/11/15 11:39:57;;;;;;;13.80;4.20;;;10.60;77.80;;;;;;6183405;28;20055;-84
2021/11/15 11:42:59;;;;;;;9.23;4.82;;;10.70;78.10;;;;;;6184915;28;20055;-83
2021/11/15 11:46:01;;;;;;;13.05;4.78;;;10.70;78.00;;;;;;6183967;28;20128;-81
2021/11/15 11:49:08;;;;;;;8.85;4.70;;;10.70;78.00;;;;;;6183383;28;20098;-83
2021/11/15 11:52:13;;;;;;;9.85;4.45;;;10.80;77.60;;;;;;6183318;28;20096;-83
2021/11/15 11:55:21;;;;;;;12.52;5.03;;;10.80;78.00;;;;;;6183756;28;20131;-83
2021/11/15 11:58:25;;;;;;;11.35;4.20;;;10.80;77.70;;;;;;6184006;28;20439;-82
2021/11/15 12:01:27;;;;;;;11.57;4.80;;;10.80;78.00;;;;;;6170021;28;20079;-81
2021/11/15 12:04:31;;;;;;;12.07;4.45;;;10.90;77.50;;;;;;6159830;28;20473;-82
2021/11/15 12:07:36;;;;;;;11.75;5.13;;;10.80;77.60;;;;;;6169069;28;20054;-83
2021/11/15 12:10:42;;;;;;;13.98;5.60;;;10.90;78.50;;;;;;6182880;28;20137;-83
2021/11/15 12:13:47;;;;;;;11.40;5.28;;;10.90;77.80;;;;;;6182358;28;20051;-81
2021/11/15 12:16:59;;;;;;;7.78;3.85;;;10.80;77.50;;;;;;6183832;28;20055;-83
2021/11/15 12:20:07;;;;;;;10.48;5.70;;;10.60;77.80;;;;;;6183041;28;20051;-82
2021/11/15 12:23:13;;;;;;;10.43;5.38;;;10.60;78.50;;;;;;6183927;28;20102;-81
2021/11/15 12:26:18;;;;;;;10.55;4.53;;;10.70;78.60;;;;;;6183125;28;20081;-82
2021/11/15 12:29:25;;;;;;;11.48;5.00;;;10.70;78.30;;;;;;6182785;28;20047;-83
2021/11/15 12:32:27;;;;;;;14.40;5.83;;;10.80;78.30;;;;;;6183061;28;20679;-83
2021/11/15 12:35:50;;;;;;;8.13;4.00;;;10.70;78.30;;;;;;6183477;28;20489;-82
2021/11/15 12:38:54;;;;;;;13.48;5.20;;;10.60;78.30;;;;;;6182890;28;20058;-82
2021/11/15 12:41:58;;;;;;;12.00;6.85;;;10.50;78.60;;;;;;6182937;28;20062;-81
2021/11/15 12:45:17;;;;;;;9.30;4.82;;;10.50;78.80;;;;;;6183646;28;20065;-83
2021/11/15 12:48:33;;;;;;;10.93;5.00;;;10.50;79.10;;;;;;6181764;28;20055;-83
2021/11/15 12:51:37;;;;;;;14.75;4.65;;;10.70;79.00;;;;;;6183126;28;20043;-83
2021/11/15 12:54:43;;;;;;;12.48;5.07;;;10.60;78.60;;;;;;6181767;28;20109;-78
2021/11/15 12:57:51;;;;;;;14.82;4.15;;;10.60;78.60;;;;;;6183662;28;20074;-81
2021/11/15 13:00:56;;;;;;;9.50;4.47;;;10.60;78.60;;;;;;6184654;28;20054;-82
2021/11/15 13:03:58;;;;;;;9.65;4.95;;;10.50;78.50;;;;;;6185155;28;20055;-82
2021/11/15 13:07:04;;;;;;;13.13;4.88;;;10.40;78.90;;;;;;6185360;28;20054;-85
2021/11/15 13:14:03;;;;;;;9.68;5.38;;;10.60;78.80;;;;;;6187661;28;20064;-82
2021/11/15 13:17:21;;;;;;;14.27;5.75;;;10.70;78.80;;;;;;6184955;28;20054;-82
2021/11/15 13:20:46;;;;;;;;;;;10.70;78.30;;;;;;6180155;28;20077;-81
2021/11/15 13:24:13;;;;;;;12.77;6.38;;;10.60;78.20;;;;;;6191983;28;19926;-82
2021/11/15 13:27:18;;;;;;;12.07;6.05;;;10.40;78.10;;;;;;6180247;28;20039;-81
2021/11/15 13:30:22;;;;;;;15.77;5.72;;;10.40;78.90;;;;;;6183726;28;20051;-79
2021/11/15 13:33:23;;;;;;;10.57;6.00;;;10.40;78.60;;;;;;6184822;28;20057;-82
2021/11/15 13:36:26;;;;;;;17.38;8.27;;;10.50;79.00;;;;;;6185297;28;20046;-82
2021/11/15 13:39:29;;;;;;;14.30;6.38;;;10.60;78.80;;;;;;6182335;28;20113;-82
2021/11/15 13:42:31;;;;;;;11.43;5.63;;;10.70;78.80;;;;;;6188463;28;20074;-81
2021/11/15 13:45:35;;;;;;;10.98;6.28;;;10.70;78.20;;;;;;6183801;28;20055;-81
2021/11/15 13:48:38;;;;;;;30.80;7.35;;;10.60;78.30;;;;;;6183426;28;20074;-80
2021/11/15 13:51:40;;;;;;;16.83;6.35;;;10.70;78.50;;;;;;6181453;28;20055;-81
2021/11/15 13:54:46;;;;;;;15.20;5.85;;;10.60;78.50;;;;;;6181262;28;20053;-83
2021/11/15 13:57:48;;;;;;;11.27;5.25;;;10.70;78.50;;;;;;6174369;28;20058;-83
2021/11/15 14:00:50;;;;;;;11.13;6.10;;;10.80;78.30;;;;;;6182961;28;20046;-80
2021/11/15 14:03:52;;;;;;;13.73;5.75;;;10.80;77.90;;;;;;6177641;28;20055;-83
2021/11/15 14:06:54;;;;;;;12.98;6.35;;;10.80;77.80;;;;;;6200920;28;20051;-82
2021/11/15 14:17:53;;;;;;;14.38;6.47;;;10.70;78.30;;;;;;6163201;28;20043;-81
2021/11/15 14:21:01;;;;;;;13.32;5.70;;;10.60;78.30;;;;;;6164255;28;20272;-83
2021/11/15 14:30:46;;;;;;;14.27;6.57;;;10.50;78.60;;;;;;6185528;28;20106;-82
2021/11/15 14:37:31;;;;;;;13.32;7.10;;;10.50;78.40;;;;;;6187064;28;20050;-81
2021/11/15 14:40:55;;;;;;;16.15;7.45;;;10.50;78.80;;;;;;6184836;28;20051;-82
2021/11/15 14:44:04;;;;;;;12.95;5.47;;;10.60;78.70;;;;;;6176948;28;20085;-82
2021/11/15 14:47:07;;;;;;;12.95;6.22;;;10.70;78.30;;;;;;6198728;28;20065;-82
2021/11/15 14:50:12;;;;;;;15.30;6.15;;;10.60;78.40;;;;;;6190973;28;20061;-81
2021/11/15 15:00:26;;;;;;;18.08;7.25;;;10.30;79.10;;;;;;6185057;28;20409;-83
2021/11/15 15:03:28;;;;;;;15.57;6.88;;;10.50;79.60;;;;;;6186144;28;20097;-81
2021/11/15 15:06:35;;;;;;;14.48;6.15;;;10.60;79.20;;;;;;6184859;28;20121;-81
2021/11/15 15:09:39;;;;;;;13.90;6.05;;;10.60;79.00;;;;;;6185581;28;20126;-79
2021/11/15 15:12:43;;;;;;;17.33;6.32;;;10.70;78.90;;;;;;6167276;28;20057;-80
2021/11/15 15:15:45;;;;;;;16.38;6.07;;;10.70;78.30;;;;;;6186710;28;20059;-79
2021/11/15 15:18:47;;;;;;;15.88;6.90;;;10.70;78.70;;;;;;6186437;28;20058;-82
2021/11/15 15:21:50;;;;;;;15.50;5.57;;;10.70;78.60;;;;;;6188235;28;20046;-81
2021/11/15 15:24:53;;;;;;;12.68;5.68;;;10.60;78.60;;;;;;6185386;28;20057;-81
2021/11/15 15:28:02;;;;;;;13.30;6.72;;;10.60;78.60;;;;;;6176926;28;20068;-81
2021/11/15 15:31:04;;;;;;;15.75;6.20;;;10.60;78.90;;;;;;6198457;28;20145;-81
2021/11/15 15:34:09;;;;;;;11.50;6.43;;;10.60;78.90;;;;;;6185716;28;20053;-81
2021/11/15 15:37:12;;;;;;;14.10;7.28;;;10.60;78.80;;;;;;6185851;28;20051;-82
2021/11/15 15:40:16;;;;;;;16.25;6.00;;;10.60;78.80;;;;;;6184719;28;20198;-83
2021/11/15 15:43:19;;;;;;;18.70;7.85;;;10.60;78.70;;;;;;6184262;28;20110;-83
2021/11/15 15:46:22;;;;;;;12.02;6.30;;;10.60;78.90;;;;;;6183024;28;20051;-82
2021/11/15 15:49:25;;;;;;;15.70;7.55;;;10.50;78.90;;;;;;6182396;28;20417;-83
2021/11/15 15:52:29;;;;;;;16.13;7.47;;;10.60;79.00;;;;;;6183015;28;20047;-83
2021/11/15 15:55:31;;;;;;;16.27;6.45;;;10.60;78.90;;;;;;6183454;28;20133;-81
2021/11/15 15:58:33;;;;;;;15.90;6.50;;;10.70;79.00;;;;;;6181654;28;20130;-80
2021/11/15 16:01:35;;;;;;;18.08;7.00;;;10.70;78.90;;;;;;6183203;28;20126;-81
2021/11/15 16:04:56;;;;;;;21.25;7.78;;;10.80;78.80;;;;;;6183000;28;20409;-82
2021/11/15 16:08:17;;;;;;;23.73;8.75;;;10.80;78.60;;;;;;6183399;28;20070;-81
2021/11/15 16:18:10;;;;;;;20.00;7.40;;;10.70;78.80;;;;;;6258091;28;20105;-82
2021/11/15 16:21:16;;;;;;;15.85;8.20;;;10.70;79.00;;;;;;6277923;28;20116;-82
2021/11/15 16:24:22;;;;;;;14.13;7.30;;;10.80;78.80;;;;;;6277798;28;20050;-82
2021/11/15 16:27:36;;;;;;;17.80;7.88;;;10.80;78.80;;;;;;6253564;28;20052;-83
2021/11/15 16:30:55;;;;;;;17.10;7.88;;;10.80;78.50;;;;;;6252581;28;20045;-80
2021/11/15 16:34:05;;;;;;;17.65;8.32;;;10.70;78.60;;;;;;6252614;28;20136;-85
2021/11/15 16:37:13;;;;;;;16.42;7.30;;;10.70;79.50;;;;;;6253862;28;20057;-83
2021/11/15 16:40:15;;;;;;;18.83;8.10;;;10.70;79.00;;;;;;6247249;28;20046;-82
2021/11/15 16:43:22;;;;;;;17.42;7.53;;;10.80;79.10;;;;;;6266180;28;20508;-83
2021/11/15 16:46:26;;;;;;;16.97;9.30;;;10.80;78.70;;;;;;6254165;28;20395;-80
2021/11/15 16:49:28;;;;;;;19.50;7.90;;;10.80;78.50;;;;;;6252540;28;20057;-79
2021/11/15 16:55:47;;;;;;;18.98;8.10;;;10.70;78.80;;;;;;6258228;28;20049;-81
2021/11/15 16:58:48;;;;;;;19.70;9.40;;;10.60;78.70;;;;;;6258755;28;20411;-80
2021/11/15 17:01:59;;;;;;;22.95;9.45;;;10.60;79.10;;;;;;6258045;28;20128;-81
2021/11/15 17:05:01;;;;;;;18.92;8.50;;;10.60;79.40;;;;;;6257279;28;20057;-81
2021/11/15 17:08:25;;;;;;;21.27;8.70;;;10.70;79.90;;;;;;6247693;28;20085;-81